Time;durP1;ratioP1;P1;durP2;ratioP2;P2;SDS_P1;SDS_P2;PMS_P1;PMS_P2;Temp;Humidity;BMP_temperature;BMP_pressure;BME280_temperature;BME280_humidity;BME280_pressure;Samples;Min_cycle;Max_cycle;Signal;HPM_P1;HPM_P2
2021/06/30 00:01:19;;;;;;;13.80;10.57;;;;;;;;;;4954566;29;20019;-66
2021/06/30 00:03:45;;;;;;;15.82;11.00;;;;;;;;;;4954293;28;20412;-66
2021/06/30 00:06:10;;;;;;;14.98;10.40;;;;;;;;;;4954601;29;20026;-65
2021/06/30 00:08:36;;;;;;;22.27;11.27;;;;;;;;;;4954401;29;20075;-66
2021/06/30 00:11:03;;;;;;;17.08;10.85;;;;;;;;;;4954340;29;20128;-65
2021/06/30 00:16:32;;;;;;;14.60;10.48;;;;;;;;;;4954198;29;20074;-65
2021/06/30 00:18:59;;;;;;;14.20;10.60;;;;;;;;;;4954627;29;20024;-65
2021/06/30 00:21:24;;;;;;;19.48;11.50;;;;;;;;;;4954286;29;20023;-66
2021/06/30 00:23:50;;;;;;;15.02;10.57;;;;;;;;;;4954392;29;20024;-65
2021/06/30 00:26:15;;;;;;;14.13;11.48;;;;;;;;;;4954461;29;20023;-66
2021/06/30 00:28:41;;;;;;;19.92;11.75;;;;;;;;;;4952872;29;20498;-68
2021/06/30 00:31:06;;;;;;;14.88;11.82;;;;;;;;;;4954200;29;20148;-63
2021/06/30 00:33:31;;;;;;;19.42;10.95;;;;;;;;;;4954310;29;20034;-66
2021/06/30 00:35:57;;;;;;;17.70;11.77;;;;;;;;;;4954240;29;20372;-66
2021/06/30 00:38:22;;;;;;;15.05;11.73;;;;;;;;;;4952980;29;20395;-66
2021/06/30 00:40:48;;;;;;;20.63;12.88;;;;;;;;;;4954045;29;20019;-65
2021/06/30 00:43:13;;;;;;;16.52;12.13;;;;;;;;;;4954213;29;20019;-65
2021/06/30 00:45:39;;;;;;;17.50;11.35;;;;;;;;;;4954119;29;20522;-67
2021/06/30 00:48:04;;;;;;;17.63;13.13;;;;;;;;;;4954248;28;20019;-65
2021/06/30 00:50:30;;;;;;;19.65;13.07;;;;;;;;;;4955865;29;20027;-66
2021/06/30 00:52:55;;;;;;;22.92;12.38;;;;;;;;;;4958214;29;20012;-66
2021/06/30 00:55:23;;;;;;;19.60;12.85;;;;;;;;;;4957702;29;20113;-65
2021/06/30 00:57:48;;;;;;;20.35;12.07;;;;;;;;;;4957677;29;20476;-65
2021/06/30 01:00:14;;;;;;;20.65;12.07;;;;;;;;;;4957615;29;20023;-66
2021/06/30 01:02:39;;;;;;;19.33;12.63;;;;;;;;;;4956865;28;20054;-65
2021/06/30 01:05:05;;;;;;;20.10;12.98;;;;;;;;;;4955665;28;20492;-65
2021/06/30 01:07:30;;;;;;;23.52;13.05;;;;;;;;;;4955725;28;20061;-67
2021/06/30 01:09:55;;;;;;;18.60;12.48;;;;;;;;;;4976520;28;20113;-68
2021/06/30 01:12:21;;;;;;;24.08;13.18;;;;;;;;;;4976635;28;20480;-67
2021/06/30 01:14:46;;;;;;;17.05;12.90;;;;;;;;;;4976567;28;20015;-65
2021/06/30 01:17:12;;;;;;;23.42;13.32;;;;;;;;;;4976482;28;20027;-66
2021/06/30 01:19:38;;;;;;;21.58;13.88;;;;;;;;;;4976382;28;20027;-65
2021/06/30 01:22:05;;;;;;;19.17;12.68;;;;;;;;;;4976279;28;20019;-65
2021/06/30 01:24:32;;;;;;;22.42;14.75;;;;;;;;;;4976262;28;20023;-65
2021/06/30 01:26:58;;;;;;;21.40;14.00;;;;;;;;;;4976385;28;20030;-66
2021/06/30 01:29:23;;;;;;;20.60;13.88;;;;;;;;;;4976541;28;20019;-66
2021/06/30 01:31:49;;;;;;;22.67;13.80;;;;;;;;;;4976424;28;20038;-66
2021/06/30 01:34:15;;;;;;;19.70;13.60;;;;;;;;;;4976237;28;20394;-65
2021/06/30 01:36:44;;;;;;;20.08;13.57;;;;;;;;;;4975801;28;20022;-66
2021/06/30 01:39:09;;;;;;;17.67;13.35;;;;;;;;;;4975873;28;20026;-65
2021/06/30 01:41:35;;;;;;;21.55;13.30;;;;;;;;;;4975010;28;20057;-66
2021/06/30 01:44:00;;;;;;;16.23;13.18;;;;;;;;;;4976609;28;20554;-66
2021/06/30 01:46:26;;;;;;;20.38;12.95;;;;;;;;;;4975776;28;20102;-66
2021/06/30 01:48:51;;;;;;;15.63;12.25;;;;;;;;;;4976070;28;20026;-65
2021/06/30 01:51:16;;;;;;;17.75;12.63;;;;;;;;;;4975567;28;20093;-65
2021/06/30 01:53:42;;;;;;;18.85;11.35;;;;;;;;;;4975976;28;20015;-65
2021/06/30 01:56:07;;;;;;;18.65;12.00;;;;;;;;;;4975912;28;20498;-65
2021/06/30 01:58:33;;;;;;;16.83;11.52;;;;;;;;;;4975955;28;20019;-66
2021/06/30 02:00:58;;;;;;;16.80;12.00;;;;;;;;;;4975703;28;20026;-67
2021/06/30 02:03:23;;;;;;;18.30;11.15;;;;;;;;;;4975433;28;20554;-65
2021/06/30 02:05:49;;;;;;;15.07;11.20;;;;;;;;;;4975456;28;20509;-67
2021/06/30 02:08:14;;;;;;;18.35;11.60;;;;;;;;;;4975681;28;20011;-66
2021/06/30 02:10:40;;;;;;;14.82;10.32;;;;;;;;;;4975240;28;20034;-66
2021/06/30 02:13:06;;;;;;;19.77;10.82;;;;;;;;;;4975747;28;20019;-65
2021/06/30 02:15:33;;;;;;;16.55;10.25;;;;;;;;;;4975509;28;20070;-67
2021/06/30 02:17:59;;;;;;;19.83;10.00;;;;;;;;;;4976055;28;20014;-66
2021/06/30 02:20:25;;;;;;;14.95;9.93;;;;;;;;;;4975359;28;20015;-65
2021/06/30 02:22:51;;;;;;;13.38;9.00;;;;;;;;;;4975542;28;20225;-67
2021/06/30 02:25:18;;;;;;;14.18;9.52;;;;;;;;;;4975590;28;20105;-66
2021/06/30 02:27:44;;;;;;;12.77;10.07;;;;;;;;;;4958270;28;20015;-66
2021/06/30 02:30:11;;;;;;;14.10;9.35;;;;;;;;;;4975350;28;20395;-67
2021/06/30 02:32:37;;;;;;;18.02;10.52;;;;;;;;;;4975457;28;20019;-67
2021/06/30 02:35:04;;;;;;;16.83;9.57;;;;;;;;;;4975282;28;20026;-68
2021/06/30 02:37:29;;;;;;;16.10;9.38;;;;;;;;;;4975112;28;20022;-66
2021/06/30 02:39:54;;;;;;;17.88;9.40;;;;;;;;;;4975332;28;20121;-65
2021/06/30 02:42:20;;;;;;;14.73;9.70;;;;;;;;;;4975087;28;20116;-64
2021/06/30 02:44:45;;;;;;;17.27;9.02;;;;;;;;;;4974783;28;20547;-68
2021/06/30 02:47:11;;;;;;;16.20;9.77;;;;;;;;;;4974976;28;20026;-66
2021/06/30 02:49:36;;;;;;;16.23;9.95;;;;;;;;;;4975150;28;20130;-66
2021/06/30 02:52:02;;;;;;;17.65;8.65;;;;;;;;;;4974840;28;20031;-67
2021/06/30 02:54:27;;;;;;;20.20;8.93;;;;;;;;;;4974559;28;20023;-67
2021/06/30 02:56:52;;;;;;;23.15;10.80;;;;;;;;;;4975005;28;20030;-66
2021/06/30 02:59:18;;;;;;;13.27;9.80;;;;;;;;;;4974964;28;20030;-67
2021/06/30 03:01:43;;;;;;;14.00;9.20;;;;;;;;;;4974802;28;20014;-66
2021/06/30 03:04:09;;;;;;;18.75;8.88;;;;;;;;;;4974330;28;20412;-66
2021/06/30 03:06:34;;;;;;;24.27;9.50;;;;;;;;;;4974180;28;20105;-66
2021/06/30 03:08:59;;;;;;;14.15;8.35;;;;;;;;;;4974743;28;20026;-66
2021/06/30 03:11:25;;;;;;;14.57;8.82;;;;;;;;;;4973483;28;20026;-66
2021/06/30 03:13:50;;;;;;;19.90;9.00;;;;;;;;;;4974450;28;20506;-66
2021/06/30 03:16:16;;;;;;;15.85;8.10;;;;;;;;;;4974319;28;20019;-65
2021/06/30 03:18:41;;;;;;;18.13;7.40;;;;;;;;;;4974133;28;20026;-67
2021/06/30 03:21:06;;;;;;;18.55;7.28;;;;;;;;;;4974231;28;20053;-66
2021/06/30 03:23:32;;;;;;;13.48;7.32;;;;;;;;;;4974249;28;20015;-66
2021/06/30 03:25:57;;;;;;;15.95;6.22;;;;;;;;;;4974372;28;20077;-66
2021/06/30 03:28:22;;;;;;;13.00;6.47;;;;;;;;;;4974180;28;20416;-66
2021/06/30 03:30:48;;;;;;;23.20;6.50;;;;;;;;;;4973850;28;20037;-66
2021/06/30 03:33:13;;;;;;;13.05;6.22;;;;;;;;;;4956833;28;20423;-68
2021/06/30 03:35:39;;;;;;;13.10;6.57;;;;;;;;;;4974315;28;20129;-66
2021/06/30 03:38:04;;;;;;;19.25;5.78;;;;;;;;;;4974031;28;20029;-66
2021/06/30 03:40:29;;;;;;;25.50;6.00;;;;;;;;;;4973834;28;20045;-66
2021/06/30 03:42:55;;;;;;;25.42;6.53;;;;;;;;;;4974314;28;20039;-66
2021/06/30 03:45:20;;;;;;;13.25;5.05;;;;;;;;;;4974180;28;20030;-66
2021/06/30 03:47:46;;;;;;;18.92;5.25;;;;;;;;;;4973931;28;20387;-66
2021/06/30 03:50:11;;;;;;;16.35;4.53;;;;;;;;;;4973765;28;20134;-66
2021/06/30 03:52:37;;;;;;;14.77;4.75;;;;;;;;;;4973794;28;20415;-66
2021/06/30 03:55:02;;;;;;;18.00;5.70;;;;;;;;;;4973967;28;20029;-68
2021/06/30 03:57:28;;;;;;;22.67;4.28;;;;;;;;;;4973812;28;20023;-67
2021/06/30 03:59:53;;;;;;;12.68;4.30;;;;;;;;;;4973876;28;20553;-67
2021/06/30 04:02:18;;;;;;;15.65;4.68;;;;;;;;;;4973663;28;20102;-67
2021/06/30 04:04:44;;;;;;;15.35;4.03;;;;;;;;;;4973382;28;20391;-66
2021/06/30 04:07:10;;;;;;;15.15;3.95;;;;;;;;;;4973594;28;20066;-68
2021/06/30 04:09:36;;;;;;;13.63;3.60;;;;;;;;;;4974409;28;20023;-66
2021/06/30 04:12:01;;;;;;;19.38;5.10;;;;;;;;;;4973803;28;20035;-66
2021/06/30 04:14:27;;;;;;;11.98;3.28;;;;;;;;;;4973453;28;20026;-67
2021/06/30 04:16:52;;;;;;;12.75;3.47;;;;;;;;;;4973907;28;20360;-67
2021/06/30 04:19:18;;;;;;;7.88;3.03;;;;;;;;;;4973188;28;20026;-66
2021/06/30 04:21:43;;;;;;;14.20;4.57;;;;;;;;;;4973203;28;20493;-64
2021/06/30 04:24:09;;;;;;;6.55;3.33;;;;;;;;;;4976677;28;20031;-64
2021/06/30 04:26:35;;;;;;;15.93;3.08;;;;;;;;;;4977036;28;20019;-63
2021/06/30 04:29:01;;;;;;;20.88;3.35;;;;;;;;;;4976706;28;20114;-64
2021/06/30 04:31:27;;;;;;;17.08;2.83;;;;;;;;;;4976797;28;20109;-63
2021/06/30 04:33:52;;;;;;;10.93;2.05;;;;;;;;;;4977135;28;20026;-65
2021/06/30 04:36:17;;;;;;;17.58;2.67;;;;;;;;;;4976199;28;20023;-64
2021/06/30 04:38:43;;;;;;;29.10;4.22;;;;;;;;;;4976891;28;21084;-63
2021/06/30 04:41:10;;;;;;;13.55;2.88;;;;;;;;;;4977354;28;20109;-64
2021/06/30 04:43:36;;;;;;;19.00;4.22;;;;;;;;;;4977074;28;20057;-64
2021/06/30 04:46:01;;;;;;;22.17;4.75;;;;;;;;;;4977055;28;20094;-66
2021/06/30 04:48:27;;;;;;;15.82;2.45;;;;;;;;;;4976888;28;20027;-68
2021/06/30 04:50:52;;;;;;;8.90;2.47;;;;;;;;;;4959727;28;20132;-64
2021/06/30 04:53:17;;;;;;;18.48;2.55;;;;;;;;;;4975882;28;20022;-68
2021/06/30 04:55:43;;;;;;;13.60;2.30;;;;;;;;;;4976047;28;20101;-66
2021/06/30 04:58:09;;;;;;;15.77;4.85;;;;;;;;;;4973388;28;20098;-65
2021/06/30 05:00:34;;;;;;;17.23;2.80;;;;;;;;;;4968354;28;20050;-65
2021/06/30 05:03:00;;;;;;;14.50;2.50;;;;;;;;;;4974931;28;20055;-63
2021/06/30 05:05:25;;;;;;;10.73;2.10;;;;;;;;;;4972454;28;20399;-64
2021/06/30 05:07:51;;;;;;;10.38;2.00;;;;;;;;;;4974513;28;20034;-63
2021/06/30 05:10:16;;;;;;;13.23;2.45;;;;;;;;;;4975074;28;20026;-64
2021/06/30 05:12:42;;;;;;;17.50;2.40;;;;;;;;;;4974728;28;20037;-64
2021/06/30 05:15:07;;;;;;;13.13;2.30;;;;;;;;;;4973119;28;20025;-64
2021/06/30 05:17:32;;;;;;;15.25;2.78;;;;;;;;;;4974575;28;20097;-64
2021/06/30 05:19:58;;;;;;;8.55;1.92;;;;;;;;;;4975302;28;20034;-67
2021/06/30 05:22:23;;;;;;;16.73;4.18;;;;;;;;;;4957773;28;20015;-67
2021/06/30 05:24:49;;;;;;;14.02;2.28;;;;;;;;;;4974891;28;20450;-66
2021/06/30 05:27:14;;;;;;;11.65;2.58;;;;;;;;;;4972186;28;20026;-65
2021/06/30 05:29:39;;;;;;;12.57;2.05;;;;;;;;;;4971530;28;20030;-67
2021/06/30 05:32:05;;;;;;;6.50;1.67;;;;;;;;;;4975921;28;20165;-68
2021/06/30 05:34:30;;;;;;;13.68;3.00;;;;;;;;;;4974686;28;20045;-65
2021/06/30 05:36:56;;;;;;;13.80;2.33;;;;;;;;;;4975490;28;20073;-63
2021/06/30 05:39:22;;;;;;;12.60;2.00;;;;;;;;;;4975803;28;20057;-67
2021/06/30 05:41:47;;;;;;;14.30;2.00;;;;;;;;;;4975009;28;20110;-67
2021/06/30 05:44:14;;;;;;;13.95;2.53;;;;;;;;;;4975113;28;20027;-64
2021/06/30 05:46:40;;;;;;;15.45;2.35;;;;;;;;;;4956023;28;20022;-65
2021/06/30 05:49:06;;;;;;;9.52;2.03;;;;;;;;;;4974678;28;20093;-63
2021/06/30 05:51:32;;;;;;;7.30;1.85;;;;;;;;;;4940739;28;20491;-62
2021/06/30 05:53:57;;;;;;;8.45;2.33;;;;;;;;;;4972227;28;20085;-64
2021/06/30 05:56:23;;;;;;;11.45;2.78;;;;;;;;;;4973969;28;20019;-63
2021/06/30 05:58:48;;;;;;;16.38;2.20;;;;;;;;;;4974319;28;20106;-62
2021/06/30 06:01:13;;;;;;;8.30;1.77;;;;;;;;;;4973377;28;20019;-63
2021/06/30 06:03:39;;;;;;;19.13;2.45;;;;;;;;;;4968311;28;20055;-63
2021/06/30 06:06:04;;;;;;;15.95;3.03;;;;;;;;;;4971114;28;20503;-63
2021/06/30 06:08:31;;;;;;;8.90;1.80;;;;;;;;;;4973429;28;20041;-63
2021/06/30 06:10:56;;;;;;;8.52;1.90;;;;;;;;;;4971093;28;20039;-62
2021/06/30 06:13:22;;;;;;;13.55;2.58;;;;;;;;;;4972576;28;20027;-60
2021/06/30 06:15:47;;;;;;;11.05;1.92;;;;;;;;;;4972955;28;20031;-60
2021/06/30 06:18:12;;;;;;;13.60;2.15;;;;;;;;;;4971574;28;20027;-60
2021/06/30 06:20:38;;;;;;;11.55;1.65;;;;;;;;;;4972636;28;20023;-61
2021/06/30 06:23:03;;;;;;;19.52;2.17;;;;;;;;;;4974683;28;20054;-60
2021/06/30 06:25:29;;;;;;;10.95;2.08;;;;;;;;;;4972375;28;20493;-60
2021/06/30 06:27:54;;;;;;;11.35;1.70;;;;;;;;;;4973314;28;20487;-59
2021/06/30 06:30:20;;;;;;;19.17;2.75;;;;;;;;;;4973027;28;20542;-60
2021/06/30 06:32:45;;;;;;;20.80;2.85;;;;;;;;;;4972469;28;20034;-59
2021/06/30 06:35:11;;;;;;;16.42;2.20;;;;;;;;;;4983656;28;20015;-60
2021/06/30 06:37:39;;;;;;;3.50;1.75;;;;;;;;;;4973695;28;20030;-62
2021/06/30 06:40:05;;;;;;;17.67;1.88;;;;;;;;;;4973802;28;20035;-61
2021/06/30 06:42:31;;;;;;;9.55;1.88;;;;;;;;;;4974393;28;20415;-62
2021/06/30 06:44:57;;;;;;;12.90;1.98;;;;;;;;;;4974830;28;20503;-60
2021/06/30 06:47:22;;;;;;;9.30;2.30;;;;;;;;;;4973909;28;20066;-62
2021/06/30 06:49:48;;;;;;;9.73;1.80;;;;;;;;;;4974694;28;20031;-62
2021/06/30 06:52:13;;;;;;;16.40;2.15;;;;;;;;;;4974163;28;20019;-63
2021/06/30 06:54:39;;;;;;;13.40;1.45;;;;;;;;;;4973630;28;20023;-62
2021/06/30 06:57:04;;;;;;;21.65;2.47;;;;;;;;;;4974625;28;20023;-62
2021/06/30 06:59:30;;;;;;;15.00;1.83;;;;;;;;;;4974471;28;20495;-62
2021/06/30 07:01:55;;;;;;;7.78;2.13;;;;;;;;;;4972968;28;20077;-62
2021/06/30 07:04:20;;;;;;;13.18;1.73;;;;;;;;;;4973514;28;20113;-62
2021/06/30 07:06:46;;;;;;;7.80;1.90;;;;;;;;;;4973929;28;20022;-63
2021/06/30 07:09:11;;;;;;;19.70;2.35;;;;;;;;;;4973483;28;20062;-63
2021/06/30 07:11:36;;;;;;;6.07;1.38;;;;;;;;;;4973890;28;20054;-63
2021/06/30 07:14:02;;;;;;;17.50;2.20;;;;;;;;;;4973620;28;20420;-63
2021/06/30 07:16:27;;;;;;;9.50;1.67;;;;;;;;;;4972989;28;20019;-63
2021/06/30 07:18:53;;;;;;;11.60;2.92;;;;;;;;;;4974105;28;20023;-62
2021/06/30 07:21:18;;;;;;;14.93;2.30;;;;;;;;;;4973899;28;20027;-63
2021/06/30 07:23:44;;;;;;;12.50;1.70;;;;;;;;;;4972642;28;20154;-63
2021/06/30 07:26:11;;;;;;;12.02;2.40;;;;;;;;;;4973701;28;20515;-62
2021/06/30 07:28:37;;;;;;;11.70;1.98;;;;;;;;;;4971297;28;20062;-63
2021/06/30 07:31:03;;;;;;;4.65;1.50;;;;;;;;;;4972071;28;20121;-64
2021/06/30 07:33:28;;;;;;;13.55;1.80;;;;;;;;;;4973376;28;20019;-62
2021/06/30 07:35:53;;;;;;;5.75;1.70;;;;;;;;;;4972976;28;20058;-63
2021/06/30 07:38:19;;;;;;;11.77;2.30;;;;;;;;;;4972687;28;20486;-63
2021/06/30 07:40:44;;;;;;;5.15;1.88;;;;;;;;;;4972486;28;20102;-63
2021/06/30 07:43:10;;;;;;;8.80;2.03;;;;;;;;;;4970329;28;20023;-64
2021/06/30 07:45:35;;;;;;;7.35;1.70;;;;;;;;;;4970757;28;20054;-65
2021/06/30 07:48:01;;;;;;;12.50;1.83;;;;;;;;;;4972859;28;20027;-62
2021/06/30 07:50:26;;;;;;;20.80;3.17;;;;;;;;;;4972386;28;20015;-62
2021/06/30 07:52:52;;;;;;;14.73;2.33;;;;;;;;;;4971663;28;20081;-61
2021/06/30 07:55:19;;;;;;;24.58;1.90;;;;;;;;;;4972453;28;20175;-72
2021/06/30 07:57:44;;;;;;;11.07;1.70;;;;;;;;;;4955124;28;20113;-70
2021/06/30 08:00:10;;;;;;;7.45;1.38;;;;;;;;;;4955320;28;20117;-72
2021/06/30 08:02:38;;;;;;;6.00;1.45;;;;;;;;;;4970437;28;20007;-71
2021/06/30 08:05:04;;;;;;;8.23;1.38;;;;;;;;;;4971095;28;20027;-69
2021/06/30 08:07:30;;;;;;;5.18;1.25;;;;;;;;;;4955021;28;20546;-73
2021/06/30 08:09:55;;;;;;;11.80;2.30;;;;;;;;;;4955131;28;20101;-69
2021/06/30 08:12:20;;;;;;;13.35;1.80;;;;;;;;;;4971898;28;20110;-69
2021/06/30 08:14:46;;;;;;;8.73;1.50;;;;;;;;;;4971709;28;20483;-71
2021/06/30 08:17:11;;;;;;;7.28;1.73;;;;;;;;;;4972216;28;20110;-73
2021/06/30 08:19:37;;;;;;;24.35;2.65;;;;;;;;;;4973043;28;20018;-72
2021/06/30 08:22:02;;;;;;;6.50;1.52;;;;;;;;;;4977946;28;20781;-70
2021/06/30 08:24:28;;;;;;;9.05;1.90;;;;;;;;;;4976237;28;20017;-71
2021/06/30 08:26:55;;;;;;;7.57;1.58;;;;;;;;;;4972186;28;20373;-72
2021/06/30 08:29:21;;;;;;;7.97;1.80;;;;;;;;;;4972759;28;20122;-63
2021/06/30 08:31:47;;;;;;;9.13;2.03;;;;;;;;;;4980926;28;20045;-64
2021/06/30 08:34:12;;;;;;;8.18;1.60;;;;;;;;;;4973960;28;20018;-62
2021/06/30 08:36:38;;;;;;;11.40;2.00;;;;;;;;;;4984072;28;20026;-67
2021/06/30 08:39:04;;;;;;;8.50;1.90;;;;;;;;;;4972269;28;20023;-68
2021/06/30 08:41:30;;;;;;;8.82;1.63;;;;;;;;;;4972350;28;20023;-67
2021/06/30 08:43:57;;;;;;;8.50;1.63;;;;;;;;;;4972268;28;20026;-69
2021/06/30 08:46:22;;;;;;;5.43;2.05;;;;;;;;;;4971739;28;20030;-68
2021/06/30 08:48:50;;;;;;;17.00;2.03;;;;;;;;;;4972237;28;20014;-68
2021/06/30 08:51:23;;;;;;;4.30;1.63;;;;;;;;;;4977334;28;20031;-67
2021/06/30 08:53:48;;;;;;;8.68;1.55;;;;;;;;;;4972029;28;20089;-67
2021/06/30 08:56:14;;;;;;;19.92;2.63;;;;;;;;;;4973232;28;20042;-68
2021/06/30 08:58:39;;;;;;;5.25;1.80;;;;;;;;;;4957356;28;20082;-67
2021/06/30 09:01:05;;;;;;;6.93;1.55;;;;;;;;;;4972043;28;20019;-73
2021/06/30 09:03:30;;;;;;;10.95;2.08;;;;;;;;;;4972178;28;20097;-74
2021/06/30 09:06:10;;;;;;;8.15;2.05;;;;;;;;;;4955012;28;20019;-70
2021/06/30 09:08:42;;;;;;;76.53;4.63;;;;;;;;;;4947276;28;20105;-69
2021/06/30 09:11:21;;;;;;;13.23;2.25;;;;;;;;;;4964503;28;20034;-70
2021/06/30 09:13:47;;;;;;;11.70;1.88;;;;;;;;;;4955001;28;20057;-71
2021/06/30 09:16:13;;;;;;;7.97;2.13;;;;;;;;;;4967144;28;20517;-70
2021/06/30 09:18:42;;;;;;;12.50;2.13;;;;;;;;;;4973964;28;20022;-72
2021/06/30 09:21:24;;;;;;;6.22;1.30;;;;;;;;;;4977707;28;20023;-70
2021/06/30 09:24:11;;;;;;;4.60;1.33;;;;;;;;;;4955710;28;20063;-70
2021/06/30 09:26:45;;;;;;;9.95;2.40;;;;;;;;;;4986230;28;20026;-71
2021/06/30 09:29:11;;;;;;;8.50;1.33;;;;;;;;;;4975519;28;20130;-71
2021/06/30 09:31:40;;;;;;;10.18;1.50;;;;;;;;;;4977193;28;20065;-70
2021/06/30 09:34:05;;;;;;;10.85;1.50;;;;;;;;;;4983122;28;20415;-70
2021/06/30 09:36:42;;;;;;;9.18;1.50;;;;;;;;;;4984532;28;20006;-72
2021/06/30 09:39:11;;;;;;;6.72;1.60;;;;;;;;;;4985954;28;20110;-70
2021/06/30 09:41:38;;;;;;;5.03;1.40;;;;;;;;;;4984526;28;20487;-70
2021/06/30 09:44:05;;;;;;;6.85;1.58;;;;;;;;;;4950275;28;20019;-70
2021/06/30 09:46:31;;;;;;;4.78;1.60;;;;;;;;;;4979321;28;20121;-71
2021/06/30 09:48:58;;;;;;;5.97;1.40;;;;;;;;;;4982133;28;20019;-66
2021/06/30 09:51:23;;;;;;;7.95;1.20;;;;;;;;;;4994066;28;20034;-67
2021/06/30 09:53:49;;;;;;;6.40;1.60;;;;;;;;;;4994165;28;20030;-66
2021/06/30 09:56:32;;;;;;;6.40;1.30;;;;;;;;;;4976425;28;20474;-67
2021/06/30 09:58:58;;;;;;;7.10;1.33;;;;;;;;;;4976661;28;20019;-68
2021/06/30 10:01:23;;;;;;;8.35;1.50;;;;;;;;;;4973014;28;20022;-70
2021/06/30 10:03:48;;;;;;;7.38;1.40;;;;;;;;;;4973768;28;20133;-68
2021/06/30 10:06:24;;;;;;;11.30;2.00;;;;;;;;;;4977154;28;20044;-70
2021/06/30 10:08:49;;;;;;;5.70;1.63;;;;;;;;;;4988920;28;20038;-69
2021/06/30 10:11:14;;;;;;;7.65;1.50;;;;;;;;;;4983775;28;20139;-71
2021/06/30 10:13:40;;;;;;;11.23;1.48;;;;;;;;;;5000083;28;20037;-71
2021/06/30 10:16:05;;;;;;;8.02;1.20;;;;;;;;;;4976698;28;20030;-70
2021/06/30 10:18:33;;;;;;;5.25;2.05;;;;;;;;;;4969134;28;20023;-69
2021/06/30 10:20:58;;;;;;;8.27;1.40;;;;;;;;;;4980064;28;20022;-69
2021/06/30 10:23:26;;;;;;;10.27;1.42;;;;;;;;;;4976245;28;20271;-70
2021/06/30 10:25:51;;;;;;;7.57;1.90;;;;;;;;;;4973751;28;20122;-71
2021/06/30 10:28:17;;;;;;;4.78;1.45;;;;;;;;;;4974680;28;20570;-71
2021/06/30 10:30:43;;;;;;;10.02;1.60;;;;;;;;;;4971726;28;20030;-69
2021/06/30 10:33:08;;;;;;;9.27;1.83;;;;;;;;;;4972282;28;20031;-69
2021/06/30 10:35:47;;;;;;;6.80;1.58;;;;;;;;;;4971605;28;20025;-71
2021/06/30 10:38:12;;;;;;;9.00;2.08;;;;;;;;;;4963801;28;20475;-70
2021/06/30 10:40:38;;;;;;;11.13;2.45;;;;;;;;;;4955950;28;20077;-70
2021/06/30 10:43:08;;;;;;;10.07;1.50;;;;;;;;;;4972850;28;20019;-69
2021/06/30 10:45:34;;;;;;;7.70;1.60;;;;;;;;;;4950772;28;20022;-70
2021/06/30 10:48:21;;;;;;;18.50;1.90;;;;;;;;;;4973190;28;20022;-70
2021/06/30 10:50:59;;;;;;;7.38;1.63;;;;;;;;;;4970942;28;20422;-68
2021/06/30 10:53:34;;;;;;;4.90;1.40;;;;;;;;;;4955972;28;20061;-68
2021/06/30 10:55:59;;;;;;;10.15;1.85;;;;;;;;;;4955469;28;20269;-70
2021/06/30 10:58:26;;;;;;;23.98;3.13;;;;;;;;;;4972630;28;20011;-70
2021/06/30 11:01:02;;;;;;;8.82;1.35;;;;;;;;;;4972235;28;20398;-69
2021/06/30 11:03:36;;;;;;;6.43;1.30;;;;;;;;;;4970105;28;20113;-68
2021/06/30 11:06:14;;;;;;;9.32;1.75;;;;;;;;;;4972076;28;20490;-69
2021/06/30 11:08:45;;;;;;;6.03;1.70;;;;;;;;;;4973009;28;20026;-68
2021/06/30 11:11:11;;;;;;;7.47;1.70;;;;;;;;;;4963958;28;20070;-70
2021/06/30 11:13:55;;;;;;;5.95;1.27;;;;;;;;;;4954196;28;20026;-69
2021/06/30 11:16:39;;;;;;;10.45;1.73;;;;;;;;;;4973102;28;20026;-67
2021/06/30 11:19:06;;;;;;;11.60;1.65;;;;;;;;;;4973621;28;20483;-69
2021/06/30 11:21:53;;;;;;;11.27;1.77;;;;;;;;;;4955334;28;20023;-70
2021/06/30 11:24:49;;;;;;;11.50;1.80;;;;;;;;;;4973318;28;20022;-67
2021/06/30 11:27:34;;;;;;;7.30;1.85;;;;;;;;;;4968794;28;20427;-67
2021/06/30 11:30:05;;;;;;;10.15;2.05;;;;;;;;;;4955883;28;20037;-67
2021/06/30 11:32:43;;;;;;;6.15;1.35;;;;;;;;;;4954424;28;20035;-67
2021/06/30 11:35:24;;;;;;;9.43;1.40;;;;;;;;;;4972537;28;20027;-68
2021/06/30 11:38:00;;;;;;;5.45;1.30;;;;;;;;;;4972747;28;20054;-66
2021/06/30 11:40:39;;;;;;;6.78;2.03;;;;;;;;;;4939731;28;20065;-68
2021/06/30 11:43:11;;;;;;;30.33;5.07;;;;;;;;;;4972868;28;20026;-67
2021/06/30 11:45:37;;;;;;;9.48;1.77;;;;;;;;;;4972352;28;20027;-69
2021/06/30 11:48:08;;;;;;;6.45;1.40;;;;;;;;;;4955967;28;20026;-67
2021/06/30 11:50:43;;;;;;;9.68;2.15;;;;;;;;;;4971796;28;20023;-68
2021/06/30 11:53:10;;;;;;;6.63;1.75;;;;;;;;;;4971773;28;20134;-67
2021/06/30 11:55:38;;;;;;;5.97;1.27;;;;;;;;;;4971720;28;20227;-67
2021/06/30 11:58:04;;;;;;;;;;;;;;;;;;4972465;28;20050;-69
2021/06/30 12:00:30;;;;;;;8.75;1.42;;;;;;;;;;4971951;28;20006;-69
2021/06/30 12:02:59;;;;;;;9.43;1.50;;;;;;;;;;4972247;28;20097;-67
2021/06/30 12:05:26;;;;;;;8.52;1.23;;;;;;;;;;4970401;28;20058;-67
2021/06/30 12:07:54;;;;;;;10.65;2.00;;;;;;;;;;4972154;28;20472;-67
2021/06/30 12:10:20;;;;;;;11.55;1.90;;;;;;;;;;4971289;28;20282;-67
2021/06/30 12:12:46;;;;;;;5.35;1.63;;;;;;;;;;4972432;28;20384;-68
2021/06/30 12:15:12;;;;;;;5.57;1.75;;;;;;;;;;4968914;28;20023;-68
2021/06/30 12:17:38;;;;;;;13.77;2.10;;;;;;;;;;4971645;28;20153;-68
2021/06/30 12:20:05;;;;;;;9.30;1.30;;;;;;;;;;4972072;28;20490;-68
2021/06/30 12:22:35;;;;;;;6.85;1.85;;;;;;;;;;4971557;28;20513;-69
2021/06/30 12:25:05;;;;;;;11.88;1.63;;;;;;;;;;4972247;28;20019;-68
2021/06/30 12:27:33;;;;;;;5.82;1.63;;;;;;;;;;4970672;28;20105;-68
2021/06/30 12:30:06;;;;;;;8.18;1.70;;;;;;;;;;4971443;28;20028;-67
2021/06/30 12:32:32;;;;;;;13.05;2.33;;;;;;;;;;4970612;28;20089;-64
2021/06/30 12:34:59;;;;;;;8.35;2.33;;;;;;;;;;4971440;28;20475;-63
2021/06/30 12:37:25;;;;;;;11.40;2.08;;;;;;;;;;4971097;28;20395;-64
2021/06/30 12:39:51;;;;;;;6.93;1.58;;;;;;;;;;4950970;29;20019;-63
2021/06/30 12:42:17;;;;;;;10.63;2.33;;;;;;;;;;4971398;28;20550;-63
2021/06/30 12:44:55;;;;;;;11.43;2.03;;;;;;;;;;4972713;28;20022;-63
2021/06/30 12:47:24;;;;;;;5.90;1.75;;;;;;;;;;4974634;28;20031;-64
2021/06/30 12:50:04;;;;;;;11.73;2.40;;;;;;;;;;4974420;28;20042;-65
2021/06/30 12:52:30;;;;;;;9.25;1.95;;;;;;;;;;4975305;28;20058;-65
2021/06/30 12:55:00;;;;;;;15.00;2.58;;;;;;;;;;4974890;28;20048;-65
2021/06/30 12:57:25;;;;;;;8.15;1.50;;;;;;;;;;4957237;28;20022;-63
2021/06/30 13:00:09;;;;;;;17.65;2.63;;;;;;;;;;4974895;28;20372;-64
2021/06/30 13:02:34;;;;;;;9.75;2.35;;;;;;;;;;4974656;28;20023;-63
2021/06/30 13:05:20;;;;;;;6.43;2.10;;;;;;;;;;4974061;28;20390;-62
2021/06/30 13:07:45;;;;;;;14.68;2.45;;;;;;;;;;4953291;29;20074;-63
2021/06/30 13:10:11;;;;;;;10.98;1.77;;;;;;;;;;4971918;28;20022;-64
2021/06/30 13:12:37;;;;;;;12.48;2.35;;;;;;;;;;4973974;28;20034;-62
2021/06/30 13:15:03;;;;;;;13.82;2.15;;;;;;;;;;4975031;28;20387;-76
2021/06/30 13:17:28;;;;;;;9.65;1.98;;;;;;;;;;4974922;28;20114;-75
2021/06/30 13:19:53;;;;;;;9.52;1.70;;;;;;;;;;4973835;28;20026;-77
2021/06/30 13:22:26;;;;;;;7.82;1.60;;;;;;;;;;4972236;28;20038;-66
2021/06/30 13:24:55;;;;;;;7.05;1.73;;;;;;;;;;4974477;28;20360;-63
2021/06/30 13:27:35;;;;;;;14.98;2.35;;;;;;;;;;4974240;28;20026;-72
2021/06/30 13:35:36;;;;;;;21.88;2.67;;;;;;;;;;4973567;28;20451;-67
2021/06/30 13:38:07;;;;;;;11.30;2.53;;;;;;;;;;4971840;28;20073;-63
2021/06/30 13:40:34;;;;;;;14.85;2.05;;;;;;;;;;4972022;28;20019;-71
2021/06/30 13:43:01;;;;;;;11.88;2.05;;;;;;;;;;4974685;28;20081;-73
2021/06/30 13:45:33;;;;;;;10.85;1.80;;;;;;;;;;4956000;28;20122;-66
2021/06/30 13:47:58;;;;;;;10.63;1.60;;;;;;;;;;4951793;28;20023;-68
2021/06/30 13:50:23;;;;;;;12.68;2.28;;;;;;;;;;4971428;28;20092;-66
2021/06/30 13:52:49;;;;;;;8.55;1.67;;;;;;;;;;4973192;28;20038;-64
2021/06/30 13:55:14;;;;;;;7.70;1.67;;;;;;;;;;4973617;28;20476;-67
2021/06/30 13:57:40;;;;;;;11.27;2.25;;;;;;;;;;4971707;28;20015;-69
2021/06/30 14:00:06;;;;;;;7.05;2.00;;;;;;;;;;4973891;28;20022;-74
2021/06/30 14:02:32;;;;;;;7.82;1.80;;;;;;;;;;4973430;28;20029;-70
2021/06/30 14:04:57;;;;;;;12.88;2.30;;;;;;;;;;4973270;28;20431;-70
2021/06/30 14:07:22;;;;;;;7.47;1.80;;;;;;;;;;4973572;28;20026;-67
2021/06/30 14:09:48;;;;;;;4.78;1.83;;;;;;;;;;4972678;28;20420;-69
2021/06/30 14:12:13;;;;;;;6.75;1.35;;;;;;;;;;4957358;28;20110;-71
2021/06/30 14:14:38;;;;;;;12.52;2.38;;;;;;;;;;4973563;28;20118;-71
2021/06/30 14:17:04;;;;;;;7.97;1.60;;;;;;;;;;4974552;28;20482;-65
2021/06/30 14:19:30;;;;;;;6.65;1.40;;;;;;;;;;4952067;29;20488;-66
2021/06/30 14:21:55;;;;;;;11.65;2.03;;;;;;;;;;4972764;28;20157;-66
2021/06/30 14:24:21;;;;;;;14.35;3.40;;;;;;;;;;4972360;28;20022;-66
2021/06/30 14:26:46;;;;;;;81.80;74.20;;;;;;;;;;4972518;28;20117;-66
2021/06/30 14:29:12;;;;;;;929.20;834.85;;;;;;;;;;4973715;28;20066;-66
2021/06/30 14:31:37;;;;;;;21.30;4.43;;;;;;;;;;4972787;28;20043;-67
2021/06/30 14:34:06;;;;;;;13.20;1.90;;;;;;;;;;4974595;28;20419;-67
2021/06/30 14:36:32;;;;;;;11.18;2.50;;;;;;;;;;4973469;28;20118;-66
2021/06/30 14:38:58;;;;;;;10.88;2.05;;;;;;;;;;4975144;28;20102;-67
2021/06/30 14:41:24;;;;;;;8.85;1.65;;;;;;;;;;4974449;28;20022;-67